Leavenworth, WA

5:11 PM PDT on August 28, 2014 (GMT -0700)
Ephrata Municipal | Change Station
CLOSE
Current Station
Airport
Location: Ephrata,
Elevation: 1273 ft
Nearby Weather Stations

Elev 1273 ft 47.31 °N, 119.52 °W | Updated 18 minutes ago

Clear
Clear
88 °F
Feels Like 88 °F
N
15
Wind Variable Wind from WSW

Today
High -- | Low -- °F
--% Chance of Precip.
Yesterday
High -- | Low -- °F
Precip. -- in
6:16 AM 7:50 PM
Waxing Crescent, 10% visible
Pressure 29.86 in
Visibility 10.0 miles
Clouds Clear
Dew Point 44 °F
Humidity 22%
Rainfall 0.00 in
Snow Depth Not available.
UV 3 out of 12
Pollen 4.90 out of 12
Air Quality Not available.
Flu Activity Not available.
METAR KEPH 282353Z AUTO 25013KT 10SM CLR 31/07 A2990 RMK AO2 SLP112 T03110067 10328 20283 56009

More Conditions Fewer Conditions

Pressure 29.86 in
Visibility 10.0 miles
Clouds Clear
Dew Point 44 °F
Humidity 22%
Rainfall 0.00 in
Snow Depth Not available.
UV 3 out of 12
Pollen 4.90 out of 12
Air Quality Not available.
Flu Activity Not available.
METAR KEPH 282353Z AUTO 25013KT 10SM CLR 31/07 A2990 RMK AO2 SLP112 T03110067 10328 20283 56009

More Conditions Fewer Conditions

10-Day Weather Forecast

Almanac

Astronomy

Aug. 28, 2014 Rise Set
Actual Time 6:16 AM PDT 7:50 PM PDT
Civil Twilight 5:43 AM PDT 8:22 PM PDT
Nautical Twilight 5:04 AM PDT 9:02 PM PDT
Astronomical Twilight 4:21 AM PDT 9:44 PM PDT
Moon 9:28 AM PDT (8/28) 9:00 PM PDT (8/28)
Length of Visible Light 14h 39m
Length of Day
13h 34m
Tomorrow will be 3m 16s shorter.
Waxing Crescent, 10% of the Moon is Illuminated
Today
Waxing Crescent
Sep 2
First Quarter
Sep 8
Full
Sep 15
Last Quarter
Sep 24
New

Today's Extremes

State Highs State Lows

Community

WunderPhotos

Upload Photos

1,748,106 photos uploaded!

Nearby

Snow Depth

Station Depth Elevation
Stevens Pass 0 in 4070 ft
Grouse Camp 0 in 5380 ft
Stampede Pass 0 in 3860 ft
Olallie Meadows 2 in 3700 ft
Rainy Pass 0 in 4780 ft

Earthquake Activity

City Distance Mag. Time & Date
No recent earthquake activity has been reported nearby.
Minimum magnitude displayed is 2.5.

Coastal Water Temperatures

Place Temperature
No Stations Reporting

Nearby Weather Stations